createdAt,value
2023-05-08T00:02:15.271Z,100264.60
2023-05-08T00:04:43.429Z,100267.60
2023-05-08T00:07:11.489Z,100270.60
2023-05-08T00:09:39.515Z,100264.00
2023-05-08T00:12:07.699Z,100265.40
2023-05-08T00:14:36.352Z,100263.80
2023-05-08T00:17:04.216Z,100267.00
2023-05-08T00:19:32.207Z,100257.20
2023-05-08T00:22:00.077Z,100260.80
2023-05-08T00:24:28.044Z,100261.40
2023-05-08T00:26:55.920Z,100258.20
2023-05-08T00:29:23.992Z,100261.00
2023-05-08T00:31:51.931Z,100258.20
2023-05-08T00:34:20.022Z,100261.40
2023-05-08T00:36:47.885Z,100262.60
2023-05-08T00:39:15.760Z,100268.40
2023-05-08T00:41:43.650Z,100268.40
2023-05-08T00:44:11.596Z,100264.00
2023-05-08T00:46:39.752Z,100270.80
2023-05-08T00:49:07.680Z,100267.60
2023-05-08T00:51:35.591Z,100269.80
2023-05-08T00:54:03.780Z,100265.40
2023-05-08T00:56:32.452Z,100257.40
2023-05-08T00:59:00.324Z,100258.80
2023-05-08T01:01:29.232Z,100255.80
2023-05-08T01:03:57.441Z,100258.40
2023-05-08T01:06:25.542Z,100258.20
2023-05-08T01:08:53.421Z,100255.80
2023-05-08T01:11:22.111Z,100257.60
2023-05-08T01:13:51.506Z,100247.20
2023-05-08T01:16:44.197Z,100255.20
2023-05-08T01:19:30.860Z,100240.80
2023-05-08T01:22:04.419Z,100240.80
2023-05-08T01:25:04.718Z,100236.60
2023-05-08T01:27:35.732Z,100241.40
2023-05-08T01:30:27.027Z,100244.40
2023-05-08T01:33:03.117Z,100246.60
2023-05-08T01:35:34.850Z,100245.40
2023-05-08T01:38:11.053Z,100247.20
2023-05-08T01:40:50.080Z,100250.80
2023-05-08T01:43:39.269Z,100249.80
2023-05-08T01:46:10.877Z,100247.40
2023-05-08T01:51:57.987Z,100251.00
2023-05-08T01:54:27.085Z,100251.40
2023-05-08T01:56:56.115Z,100246.40
2023-05-08T01:59:24.141Z,100252.20
2023-05-08T02:01:54.380Z,100252.00
2023-05-08T02:04:22.582Z,100254.20
2023-05-08T02:06:51.586Z,100250.80
2023-05-08T02:09:19.424Z,100253.40
2023-05-08T02:11:47.307Z,100252.80
2023-05-08T02:14:19.862Z,100254.00
2023-05-08T02:16:49.099Z,100252.40
2023-05-08T02:19:17.227Z,100249.20
2023-05-08T02:21:45.981Z,100253.20
2023-05-08T02:24:14.132Z,100251.40
2023-05-08T02:26:42.644Z,100246.00
2023-05-08T02:29:10.769Z,100243.40
2023-05-08T02:31:39.069Z,100240.40
2023-05-08T02:34:08.166Z,100239.60
2023-05-08T02:36:36.727Z,100239.20
2023-05-08T02:39:04.750Z,100242.40
2023-05-08T02:41:32.913Z,100241.80
2023-05-08T02:44:00.715Z,100235.40
2023-05-08T02:46:36.561Z,100233.20
2023-05-08T02:49:24.422Z,100234.80
2023-05-08T02:52:14.307Z,100231.80
2023-05-08T02:55:15.289Z,100230.60
2023-05-08T02:58:07.012Z,100233.00
2023-05-08T03:00:41.495Z,100233.20
2023-05-08T03:03:13.955Z,100239.20
2023-05-08T03:05:44.757Z,100240.60
2023-05-08T03:08:15.654Z,100239.60
2023-05-08T03:10:46.027Z,100242.00
2023-05-08T03:13:14.153Z,100242.00
2023-05-08T03:15:43.556Z,100254.20
2023-05-08T03:18:13.926Z,100248.60
2023-05-08T03:20:46.535Z,100254.80
2023-05-08T03:23:15.599Z,100254.40
2023-05-08T03:25:43.652Z,100253.00
2023-05-08T03:28:13.331Z,100256.60
2023-05-08T03:30:41.672Z,100256.40
2023-05-08T03:33:12.379Z,100258.80
2023-05-08T03:35:40.531Z,100260.60
2023-05-08T03:38:10.750Z,100258.60
2023-05-08T03:40:44.661Z,100257.80
2023-05-08T03:43:12.833Z,100258.20
2023-05-08T03:45:41.233Z,100264.20
2023-05-08T03:48:10.110Z,100267.40
2023-05-08T03:50:38.472Z,100274.80
2023-05-08T03:53:09.081Z,100272.00
2023-05-08T03:55:37.273Z,100280.80
2023-05-08T03:58:07.633Z,100280.60
2023-05-08T04:01:02.906Z,100285.60
2023-05-08T04:03:46.588Z,100283.20
2023-05-08T04:06:30.692Z,100282.40
2023-05-08T04:09:04.515Z,100278.20
2023-05-08T04:11:38.666Z,100280.00
2023-05-08T04:14:07.836Z,100274.00
2023-05-08T04:16:41.491Z,100268.20
2023-05-08T04:19:11.766Z,100270.00
2023-05-08T04:21:42.364Z,100270.80
2023-05-08T04:24:13.203Z,100269.80
2023-05-08T04:26:42.208Z,100266.40
2023-05-08T04:29:10.589Z,100258.60
2023-05-08T04:31:39.515Z,100254.00
2023-05-08T04:34:09.247Z,100257.20
2023-05-08T04:36:38.109Z,100261.00
2023-05-08T04:39:07.146Z,100264.40
2023-05-08T04:41:35.610Z,100267.80
2023-05-08T04:44:03.792Z,100268.80
2023-05-08T04:46:32.346Z,100268.40
2023-05-08T04:49:00.386Z,100263.60
2023-05-08T04:51:29.901Z,100269.20
2023-05-08T04:53:58.359Z,100271.00
2023-05-08T04:56:27.063Z,100277.60
2023-05-08T04:58:55.338Z,100276.00
2023-05-08T05:01:23.778Z,100279.20
2023-05-08T05:03:51.939Z,100282.80
2023-05-08T05:06:20.017Z,100289.00
2023-05-08T05:08:48.086Z,100292.00
2023-05-08T05:11:16.635Z,100288.40
2023-05-08T05:13:44.600Z,100300.60
2023-05-08T05:16:13.609Z,100296.40
2023-05-08T05:18:41.880Z,100300.20
2023-05-08T05:21:11.554Z,100297.40
2023-05-08T05:23:39.569Z,100294.60
2023-05-08T05:26:07.887Z,100302.00
2023-05-08T05:28:36.472Z,100297.20
2023-05-08T05:31:04.881Z,100299.20
2023-05-08T05:33:33.521Z,100299.60
2023-05-08T05:36:01.882Z,100308.80
2023-05-08T05:38:30.403Z,100316.60
2023-05-08T05:40:58.590Z,100324.00
2023-05-08T05:43:26.866Z,100333.60
2023-05-08T05:45:56.497Z,100337.20
2023-05-08T05:48:25.058Z,100348.00
2023-05-08T05:50:53.014Z,100355.20
2023-05-08T05:53:21.164Z,100363.80
2023-05-08T05:55:49.154Z,100372.80
2023-05-08T05:58:17.442Z,100382.40
2023-05-08T06:00:46.346Z,100381.60
2023-05-08T06:03:14.873Z,100378.60
2023-05-08T06:05:43.940Z,100378.20
2023-05-08T06:08:12.114Z,100382.60
2023-05-08T06:10:40.045Z,100389.00
2023-05-08T06:13:09.107Z,100393.40
2023-05-08T06:15:37.094Z,100392.40
2023-05-08T06:18:06.301Z,100401.20
2023-05-08T06:20:34.647Z,100408.80
2023-05-08T06:23:02.614Z,100414.60
2023-05-08T06:25:34.122Z,100411.80
2023-05-08T06:28:02.445Z,100412.80
2023-05-08T06:30:30.775Z,100415.60
2023-05-08T06:33:00.434Z,100416.40
2023-05-08T06:35:29.244Z,100408.00
2023-05-08T06:37:57.518Z,100399.60
2023-05-08T06:40:25.650Z,100397.80
2023-05-08T06:42:55.082Z,100397.60
2023-05-08T06:45:23.065Z,100401.60
2023-05-08T06:47:51.027Z,100398.80
2023-05-08T06:50:19.314Z,100398.40
2023-05-08T06:52:47.347Z,100398.80
2023-05-08T06:55:15.491Z,100391.60
2023-05-08T06:57:43.329Z,100392.60
2023-05-08T07:00:11.780Z,100395.00
2023-05-08T07:02:40.012Z,100389.80
2023-05-08T07:05:11.200Z,100393.40
2023-05-08T07:07:40.136Z,100401.00
2023-05-08T07:10:08.795Z,100408.40
2023-05-08T07:12:36.696Z,100416.80
2023-05-08T07:15:17.806Z,100418.80
2023-05-08T07:17:52.946Z,100418.80
2023-05-08T07:20:21.789Z,100424.60
2023-05-08T07:22:50.650Z,100416.20
2023-05-08T07:25:18.461Z,100424.00
2023-05-08T07:27:48.480Z,100421.60
2023-05-08T07:30:16.514Z,100420.00
2023-05-08T07:32:44.993Z,100407.60
2023-05-08T07:35:13.893Z,100404.20
2023-05-08T07:37:42.155Z,100410.60
2023-05-08T07:40:10.618Z,100417.20
2023-05-08T07:42:42.156Z,100418.20
2023-05-08T07:45:13.031Z,100425.60
2023-05-08T07:47:57.563Z,100426.40
2023-05-08T07:50:26.038Z,100427.60
2023-05-08T07:52:54.569Z,100419.80
2023-05-08T07:55:22.719Z,100417.00
2023-05-08T07:57:51.659Z,100422.60
2023-05-08T08:00:19.609Z,100437.60
2023-05-08T08:02:47.583Z,100437.20
2023-05-08T08:05:16.055Z,100430.20
2023-05-08T08:07:44.293Z,100425.60
2023-05-08T08:10:12.625Z,100430.40
2023-05-08T08:12:42.196Z,100420.80
2023-05-08T08:15:10.406Z,100423.80
2023-05-08T08:17:38.354Z,100414.60
2023-05-08T08:20:07.074Z,100405.80
2023-05-08T08:22:36.650Z,100407.00
2023-05-08T08:25:04.700Z,100408.20
2023-05-08T08:27:32.575Z,100406.80
2023-05-08T08:30:15.171Z,100412.20
2023-05-08T08:32:45.681Z,100414.80
2023-05-08T08:35:13.972Z,100412.20
2023-05-08T08:37:42.661Z,100410.00
2023-05-08T08:40:10.735Z,100408.00
2023-05-08T08:42:38.810Z,100402.60
2023-05-08T08:45:07.506Z,100405.20
2023-05-08T08:47:41.371Z,100415.20
2023-05-08T08:50:12.832Z,100414.40
2023-05-08T08:52:49.209Z,100427.60
2023-05-08T08:55:17.614Z,100444.20
2023-05-08T08:57:57.659Z,100441.80
2023-05-08T09:00:27.147Z,100430.40
2023-05-08T09:02:55.038Z,100422.80
2023-05-08T09:05:23.872Z,100432.40
2023-05-08T09:07:53.878Z,100433.20
2023-05-08T09:10:23.033Z,100427.80
2023-05-08T09:12:51.075Z,100427.40
2023-05-08T09:15:18.937Z,100423.40
2023-05-08T09:17:47.008Z,100419.80
2023-05-08T09:20:16.001Z,100419.20
2023-05-08T09:22:44.556Z,100428.80
2023-05-08T09:25:12.688Z,100431.20
2023-05-08T09:27:40.939Z,100429.20
2023-05-08T09:30:10.650Z,100430.80
2023-05-08T09:32:41.286Z,100435.20
2023-05-08T09:35:09.616Z,100441.60
2023-05-08T09:37:42.142Z,100443.00
2023-05-08T09:40:18.059Z,100444.00
2023-05-08T09:42:46.998Z,100446.20
2023-05-08T09:45:28.263Z,100451.60
2023-05-08T09:47:56.337Z,100447.20
2023-05-08T09:50:25.243Z,100440.40
2023-05-08T09:52:53.097Z,100429.20
2023-05-08T09:55:21.125Z,100427.80
2023-05-08T09:57:59.087Z,100423.00
2023-05-08T10:00:28.121Z,100428.20
2023-05-08T10:03:01.520Z,100436.40
2023-05-08T10:05:34.836Z,100440.60
2023-05-08T10:08:19.860Z,100447.20
2023-05-08T10:10:47.969Z,100444.80
2023-05-08T10:13:16.100Z,100444.00
2023-05-08T10:15:44.967Z,100441.20
2023-05-08T10:18:13.010Z,100437.60
2023-05-08T10:20:42.489Z,100433.40
2023-05-08T10:23:17.785Z,100437.00
2023-05-08T10:25:46.811Z,100436.20
2023-05-08T10:28:37.938Z,100438.20
2023-05-08T10:31:05.992Z,100438.40
2023-05-08T10:33:34.800Z,100436.40
2023-05-08T10:36:02.722Z,100444.00
2023-05-08T10:38:30.907Z,100452.00
2023-05-08T10:41:02.374Z,100456.40
2023-05-08T10:43:31.302Z,100449.80
2023-05-08T10:45:59.342Z,100453.60
2023-05-08T10:48:40.325Z,100464.80
2023-05-08T10:51:16.817Z,100477.60
2023-05-08T10:53:46.804Z,100483.40
2023-05-08T10:56:14.669Z,100487.40
2023-05-08T10:58:42.692Z,100491.60
2023-05-08T11:01:13.815Z,100487.60
2023-05-08T11:03:46.579Z,100495.00
2023-05-08T11:06:17.326Z,100503.60
2023-05-08T11:08:50.134Z,100507.40
2023-05-08T11:11:25.150Z,100503.00
2023-05-08T11:14:07.751Z,100494.00
2023-05-08T11:16:54.045Z,100489.60
2023-05-08T11:19:25.456Z,100487.60
2023-05-08T11:22:12.234Z,100488.60
2023-05-08T11:24:47.289Z,100489.80
2023-05-08T11:27:16.049Z,100486.60
2023-05-08T11:29:45.072Z,100486.60
2023-05-08T11:32:13.033Z,100490.80
2023-05-08T11:34:47.582Z,100485.80
2023-05-08T11:37:19.880Z,100485.00
2023-05-08T11:39:47.923Z,100480.20
2023-05-08T11:42:25.118Z,100482.40
2023-05-08T11:45:06.425Z,100483.60
2023-05-08T11:47:42.018Z,100483.80
2023-05-08T11:50:10.827Z,100480.20
2023-05-08T11:52:40.517Z,100479.20
2023-05-08T11:55:08.899Z,100478.80
2023-05-08T11:57:36.876Z,100473.60
2023-05-08T12:00:08.680Z,100471.80
2023-05-08T12:02:43.518Z,100471.20
2023-05-08T12:05:11.833Z,100467.80
2023-05-08T12:07:46.730Z,100473.80
2023-05-08T12:10:16.632Z,100475.40
2023-05-08T12:12:45.451Z,100475.00
2023-05-08T12:15:14.514Z,100475.00
2023-05-08T12:17:42.606Z,100474.20
2023-05-08T12:20:16.046Z,100476.20
2023-05-08T12:22:52.872Z,100480.40
2023-05-08T12:25:22.222Z,100478.80
2023-05-08T12:27:50.116Z,100475.40
2023-05-08T12:30:18.573Z,100476.80
2023-05-08T12:32:46.889Z,100485.20
2023-05-08T12:35:15.848Z,100490.00
2023-05-08T12:37:45.012Z,100497.00
2023-05-08T12:40:27.196Z,100498.00
2023-05-08T12:42:55.151Z,100496.20
2023-05-08T12:45:33.341Z,100498.20
2023-05-08T12:48:02.790Z,100493.00
2023-05-08T12:50:34.622Z,100498.80
2023-05-08T12:53:04.571Z,100497.40
2023-05-08T12:55:34.094Z,100501.40
2023-05-08T12:58:11.993Z,100491.40
2023-05-08T13:00:44.874Z,100481.60
2023-05-08T13:03:14.282Z,100481.40
2023-05-08T13:05:43.789Z,100484.00
2023-05-08T13:08:11.926Z,100487.40
2023-05-08T13:10:58.016Z,100498.20
2023-05-08T13:13:27.634Z,100501.60
2023-05-08T13:15:56.149Z,100503.60
2023-05-08T13:18:26.767Z,100500.80
2023-05-08T13:20:55.534Z,100488.60
2023-05-08T13:23:23.636Z,100489.40
2023-05-08T13:25:51.781Z,100494.40
2023-05-08T13:28:19.777Z,100495.80
2023-05-08T13:30:47.737Z,100495.60
2023-05-08T13:33:15.883Z,100491.80
2023-05-08T13:35:43.720Z,100490.40
2023-05-08T13:38:11.511Z,100491.60
2023-05-08T13:40:39.587Z,100490.00
2023-05-08T13:43:07.473Z,100490.20
2023-05-08T13:45:35.691Z,100491.20
2023-05-08T13:48:03.708Z,100488.40
2023-05-08T13:50:31.798Z,100493.20
2023-05-08T13:52:59.786Z,100486.60
2023-05-08T13:55:27.745Z,100484.60
2023-05-08T13:57:55.697Z,100485.20
2023-05-08T14:00:24.449Z,100488.00
2023-05-08T14:02:54.548Z,100491.80
2023-05-08T14:05:22.667Z,100496.20
2023-05-08T14:07:50.644Z,100497.00
2023-05-08T14:10:18.565Z,100496.80
2023-05-08T14:12:46.908Z,100503.80
2023-05-08T14:15:16.016Z,100502.40
2023-05-08T14:17:44.253Z,100500.60
2023-05-08T14:20:12.376Z,100503.20
2023-05-08T14:22:40.383Z,100511.20
2023-05-08T14:25:09.041Z,100508.00
2023-05-08T14:27:36.937Z,100507.20
2023-05-08T14:30:05.843Z,100514.60
2023-05-08T14:32:33.890Z,100515.40
2023-05-08T14:35:02.021Z,100514.80
2023-05-08T14:37:29.808Z,100515.40
2023-05-08T14:39:59.461Z,100525.60
2023-05-08T14:42:27.390Z,100526.80
2023-05-08T14:44:56.099Z,100528.60
2023-05-08T14:47:24.189Z,100538.80
2023-05-08T14:49:53.772Z,100532.20
2023-05-08T14:52:22.236Z,100532.80
2023-05-08T14:54:53.573Z,100533.20
2023-05-08T14:57:21.605Z,100538.20
2023-05-08T14:59:54.856Z,100534.20
2023-05-08T15:02:23.708Z,100536.00
2023-05-08T15:04:51.891Z,100536.80
2023-05-08T15:07:19.813Z,100536.20
2023-05-08T15:09:47.990Z,100541.80
2023-05-08T15:12:15.915Z,100548.00
2023-05-08T15:14:45.189Z,100546.00
2023-05-08T15:17:13.177Z,100543.20
2023-05-08T15:19:40.995Z,100541.80
2023-05-08T15:22:09.141Z,100544.60
2023-05-08T15:24:37.093Z,100544.60
2023-05-08T15:27:05.037Z,100550.00
2023-05-08T15:29:32.949Z,100548.20
2023-05-08T15:32:01.277Z,100545.60
2023-05-08T15:34:32.315Z,100543.80
2023-05-08T15:37:00.793Z,100538.40
2023-05-08T15:39:28.776Z,100534.80
2023-05-08T15:41:56.554Z,100537.80
2023-05-08T15:44:26.569Z,100538.00
2023-05-08T15:46:56.748Z,100531.00
2023-05-08T15:49:26.087Z,100530.00
2023-05-08T15:51:53.960Z,100530.80
2023-05-08T15:54:22.056Z,100542.80
2023-05-08T15:56:50.020Z,100544.00
2023-05-08T15:59:17.803Z,100546.00
2023-05-08T16:01:46.945Z,100548.00
2023-05-08T16:04:15.620Z,100553.00
2023-05-08T16:06:45.560Z,100552.20
2023-05-08T16:09:13.365Z,100551.00
2023-05-08T16:11:41.308Z,100552.60
2023-05-08T16:14:09.304Z,100554.40
2023-05-08T16:16:39.948Z,100553.00
2023-05-08T16:19:07.799Z,100549.20
2023-05-08T16:21:36.172Z,100542.60
2023-05-08T16:24:04.348Z,100543.80
2023-05-08T16:26:32.404Z,100553.60
2023-05-08T16:29:01.509Z,100556.20
2023-05-08T16:31:29.387Z,100555.40
2023-05-08T16:33:57.343Z,100556.20
2023-05-08T16:36:25.215Z,100558.40
2023-05-08T16:38:53.117Z,100564.00
2023-05-08T16:41:21.560Z,100567.40
2023-05-08T16:43:49.490Z,100570.80
2023-05-08T16:46:20.768Z,100576.40
2023-05-08T16:48:54.597Z,100569.60
2023-05-08T16:51:22.552Z,100577.40
2023-05-08T16:53:50.455Z,100587.60
2023-05-08T16:56:18.570Z,100587.40
2023-05-08T16:58:46.566Z,100596.00
2023-05-08T17:01:15.156Z,100589.20
2023-05-08T17:03:42.911Z,100582.60
2023-05-08T17:06:10.794Z,100587.80
2023-05-08T17:08:38.779Z,100586.60
2023-05-08T17:11:06.633Z,100588.00
2023-05-08T17:13:34.512Z,100595.40
2023-05-08T17:16:02.704Z,100600.60
2023-05-08T17:18:30.583Z,100602.20
2023-05-08T17:20:58.353Z,100599.40
2023-05-08T17:23:26.224Z,100603.80
2023-05-08T17:25:57.656Z,100613.20
2023-05-08T17:28:25.692Z,100610.60
2023-05-08T17:30:53.654Z,100618.80
2023-05-08T17:33:21.784Z,100613.40
2023-05-08T17:35:49.748Z,100615.00
2023-05-08T17:38:19.798Z,100608.40
2023-05-08T17:40:48.038Z,100612.20
2023-05-08T17:43:15.940Z,100614.60
2023-05-08T17:45:44.354Z,100625.60
2023-05-08T17:48:14.761Z,100622.40
2023-05-08T17:50:43.625Z,100624.60
2023-05-08T17:53:11.738Z,100623.40
2023-05-08T17:55:39.752Z,100629.20
2023-05-08T17:58:07.599Z,100634.00
2023-05-08T18:00:35.553Z,100645.40
2023-05-08T18:03:04.248Z,100651.00
2023-05-08T18:05:32.408Z,100645.40
2023-05-08T18:08:02.021Z,100655.20
2023-05-08T18:10:30.108Z,100655.60
2023-05-08T18:12:57.963Z,100661.80
2023-05-08T18:15:26.374Z,100664.80
2023-05-08T18:17:54.378Z,100665.00
2023-05-08T18:20:22.448Z,100675.20
2023-05-08T18:22:53.754Z,100677.20
2023-05-08T18:25:23.631Z,100689.40
2023-05-08T18:27:51.903Z,100704.80
2023-05-08T18:30:19.766Z,100703.40
2023-05-08T18:32:47.616Z,100712.80
2023-05-08T18:35:15.557Z,100717.40
2023-05-08T18:37:43.514Z,100726.60
2023-05-08T18:40:14.206Z,100730.60
2023-05-08T18:42:42.321Z,100733.00
2023-05-08T18:45:11.462Z,100740.00
2023-05-08T18:47:39.722Z,100752.60
2023-05-08T18:50:09.378Z,100758.40
2023-05-08T18:52:37.256Z,100762.60
2023-05-08T18:55:06.244Z,100762.80
2023-05-08T18:57:34.229Z,100757.60
2023-05-08T19:00:02.454Z,100752.60
2023-05-08T19:02:30.761Z,100761.40
2023-05-08T19:04:58.957Z,100763.00
2023-05-08T19:07:26.793Z,100765.60
2023-05-08T19:09:55.566Z,100771.40
2023-05-08T19:12:23.576Z,100772.60
2023-05-08T19:14:53.148Z,100777.20
2023-05-08T19:17:21.222Z,100777.40
2023-05-08T19:19:51.882Z,100779.80
2023-05-08T19:22:19.674Z,100782.40
2023-05-08T19:24:47.561Z,100775.20
2023-05-08T19:27:15.359Z,100778.40
2023-05-08T19:29:44.400Z,100783.20
2023-05-08T19:32:12.191Z,100776.80
2023-05-08T19:34:40.058Z,100774.00
2023-05-08T19:37:07.819Z,100768.40
2023-05-08T19:39:35.769Z,100769.80
2023-05-08T19:42:03.804Z,100768.60
2023-05-08T19:44:32.806Z,100763.40
2023-05-08T19:47:03.045Z,100762.80
2023-05-08T19:49:34.057Z,100768.80
2023-05-08T19:52:02.952Z,100762.60
2023-05-08T19:54:31.706Z,100775.20
2023-05-08T19:57:01.290Z,100775.80
2023-05-08T19:59:32.091Z,100782.60
2023-05-08T20:02:01.481Z,100780.80
2023-05-08T20:04:32.302Z,100781.00
2023-05-08T20:07:03.191Z,100770.80
2023-05-08T20:09:33.173Z,100770.60
2023-05-08T20:12:03.990Z,100771.20
2023-05-08T20:14:34.037Z,100770.00
2023-05-08T20:17:04.053Z,100767.60
2023-05-08T20:19:35.530Z,100763.00
2023-05-08T20:22:05.263Z,100762.00
2023-05-08T20:24:33.956Z,100765.00
2023-05-08T20:27:05.599Z,100766.00
2023-05-08T20:29:37.320Z,100766.20
2023-05-08T20:32:08.447Z,100763.40
2023-05-08T20:34:38.705Z,100770.40
2023-05-08T20:37:07.268Z,100774.20
2023-05-08T20:39:36.680Z,100774.60
2023-05-08T20:42:05.228Z,100774.20
2023-05-08T20:44:35.417Z,100774.40
2023-05-08T20:47:06.989Z,100770.20
2023-05-08T20:49:37.427Z,100770.60
2023-05-08T20:52:06.615Z,100768.40
2023-05-08T20:54:38.804Z,100766.80
2023-05-08T20:57:07.772Z,100759.80
2023-05-08T20:59:38.823Z,100766.80
2023-05-08T21:02:08.260Z,100768.80
2023-05-08T21:04:38.416Z,100769.00
2023-05-08T21:07:10.730Z,100774.60
2023-05-08T21:09:41.106Z,100776.40
2023-05-08T21:12:11.330Z,100775.20
2023-05-08T21:14:44.716Z,100772.60
2023-05-08T21:17:16.112Z,100772.80
2023-05-08T21:19:46.890Z,100765.00
2023-05-08T21:22:17.687Z,100764.40
2023-05-08T21:24:47.582Z,100771.00
2023-05-08T21:27:15.629Z,100767.20
2023-05-08T21:29:43.434Z,100773.00
2023-05-08T21:32:12.829Z,100774.80
2023-05-08T21:34:41.525Z,100773.60
2023-05-08T21:37:11.212Z,100778.00
2023-05-08T21:39:40.797Z,100777.60
2023-05-08T21:42:10.060Z,100790.60
2023-05-08T21:44:38.207Z,100790.00
2023-05-08T21:47:06.422Z,100783.80
2023-05-08T21:49:34.497Z,100786.60
2023-05-08T21:52:02.623Z,100787.00
2023-05-08T21:54:30.585Z,100782.60
2023-05-08T21:56:58.422Z,100792.40
2023-05-08T21:59:29.920Z,100792.40
2023-05-08T22:01:58.846Z,100796.80
2023-05-08T22:04:27.076Z,100791.20
2023-05-08T22:06:57.968Z,100789.80
2023-05-08T22:09:25.989Z,100797.40
2023-05-08T22:11:53.828Z,100795.20
2023-05-08T22:14:21.910Z,100793.00
2023-05-08T22:16:50.023Z,100797.60
2023-05-08T22:19:19.431Z,100800.80
2023-05-08T22:21:49.965Z,100800.40
2023-05-08T22:24:19.298Z,100798.00
2023-05-08T22:26:47.385Z,100800.20
2023-05-08T22:29:17.075Z,100793.20
2023-05-08T22:31:46.285Z,100794.60
2023-05-08T22:34:14.260Z,100796.80
2023-05-08T22:36:42.322Z,100792.40
2023-05-08T22:39:10.291Z,100802.60
2023-05-08T22:41:38.555Z,100795.40
2023-05-08T22:44:06.532Z,100791.20
2023-05-08T22:46:36.221Z,100796.60
2023-05-08T22:49:04.840Z,100789.60
2023-05-08T22:51:32.715Z,100799.20
2023-05-08T22:54:00.969Z,100797.80
2023-05-08T22:56:28.941Z,100799.20
2023-05-08T22:58:57.526Z,100795.80
2023-05-08T23:01:25.634Z,100793.60
2023-05-08T23:03:54.460Z,100794.00
2023-05-08T23:06:22.460Z,100792.00
2023-05-08T23:08:50.280Z,100789.20
2023-05-08T23:11:18.283Z,100788.60
2023-05-08T23:13:46.353Z,100784.80
2023-05-08T23:16:14.446Z,100784.60
2023-05-08T23:18:42.359Z,100786.20
2023-05-08T23:21:10.774Z,100783.80
2023-05-08T23:23:38.742Z,100779.80
2023-05-08T23:26:06.911Z,100784.20
2023-05-08T23:28:35.406Z,100788.40
2023-05-08T23:31:03.900Z,100786.80
2023-05-08T23:33:32.352Z,100782.20
2023-05-08T23:36:00.728Z,100782.20
2023-05-08T23:38:28.908Z,100782.60
2023-05-08T23:40:56.769Z,100777.60
2023-05-08T23:43:25.051Z,100779.00
2023-05-08T23:45:52.840Z,100771.40
2023-05-08T23:48:25.789Z,100775.60
2023-05-08T23:50:53.746Z,100770.80
2023-05-08T23:53:23.224Z,100772.60
2023-05-08T23:55:52.332Z,100769.20
2023-05-08T23:58:21.666Z,100773.40
